East Johnson, Vermont
Current Conditions -  °F | °C
As of 7:23 PM on Friday 28 Nov 2014 (Local Time) from KMVL Reporting Station
Light Snow Light Snow  
Wind Chill: 19°   Ceiling: 2400
Heat Index: 19°   Visibility: 2.5mi
Dew Point: 15°   Wind: 0mph
Humidity: 85%   Direction: NA
Pressure: 30.15"   Gusts: NA
Location:  44.6472°N, 72.6854°W
Report Text: KMVL 290023Z AUTO 00000KT 2 1/2SM -SN BR BKN024 OVC048 M07/M09 A3015 RMK AO2 P0000 T10721094 TSNO
Loading
Personal Weather Stations






























Interactive Weather Map New forecast layout! Learn more

10-Day Weather Forecast

Advertisements
Track Severe Weather on mobile